Time;durP1;ratioP1;P1;durP2;ratioP2;P2;SDS_P1;SDS_P2;PMS_P1;PMS_P2;Temp;Humidity;BMP_temperature;BMP_pressure;BME280_temperature;BME280_humidity;BME280_pressure;Samples;Min_cycle;Max_cycle;Signal;HPM_P1;HPM_P2
2023/12/21 00:01:34;;;;;;;1.10;0.60;;;6.00;81.10;;;;;;4946288;28;20396;-62
2023/12/21 00:04:01;;;;;;;1.10;0.65;;;5.90;81.10;;;;;;4949548;28;20122;-63
2023/12/21 00:06:26;;;;;;;3.65;0.70;;;5.80;81.00;;;;;;4946201;28;20062;-62
2023/12/21 00:08:52;;;;;;;3.60;0.90;;;6.00;81.10;;;;;;4942187;28;20407;-63
2023/12/21 00:11:17;;;;;;;3.70;1.00;;;6.00;81.10;;;;;;4941771;28;20031;-62
2023/12/21 00:13:43;;;;;;;1.50;0.68;;;6.00;80.90;;;;;;4943829;28;20062;-62
2023/12/21 00:16:09;;;;;;;4.18;0.90;;;5.90;81.00;;;;;;4942360;28;20110;-62
2023/12/21 00:18:35;;;;;;;2.60;0.50;;;5.90;81.10;;;;;;4943146;28;20119;-61
2023/12/21 00:21:00;;;;;;;1.45;0.73;;;5.90;81.10;;;;;;4948777;28;20562;-63
2023/12/21 00:23:26;;;;;;;3.30;0.82;;;5.90;81.20;;;;;;4952803;28;20029;-63
2023/12/21 00:25:52;;;;;;;2.15;0.90;;;5.90;81.10;;;;;;4944172;28;20458;-61
2023/12/21 00:28:17;;;;;;;2.22;0.95;;;5.90;80.90;;;;;;4941119;28;20078;-62
2023/12/21 00:30:43;;;;;;;4.03;0.80;;;5.90;80.90;;;;;;4943029;28;20035;-62
2023/12/21 00:33:08;;;;;;;1.15;0.63;;;5.90;81.10;;;;;;4942350;28;20039;-61
2023/12/21 00:35:34;;;;;;;3.20;1.00;;;5.90;81.80;;;;;;4942684;28;20142;-63
2023/12/21 00:38:00;;;;;;;1.80;0.80;;;5.90;81.10;;;;;;4943330;28;20563;-63
2023/12/21 00:40:26;;;;;;;2.05;0.80;;;5.90;81.10;;;;;;4943387;28;20039;-63
2023/12/21 00:42:52;;;;;;;2.40;0.60;;;5.90;81.20;;;;;;4949732;28;20027;-63
2023/12/21 00:45:18;;;;;;;2.60;0.77;;;5.90;81.20;;;;;;4944282;28;20097;-63
2023/12/21 00:47:43;;;;;;;1.02;0.80;;;5.90;81.30;;;;;;4943306;28;20035;-61
2023/12/21 00:50:09;;;;;;;2.75;0.80;;;5.90;81.30;;;;;;4943819;28;20049;-62
2023/12/21 00:52:36;;;;;;;3.92;0.70;;;5.90;81.30;;;;;;4944695;28;20035;-63
2023/12/21 00:55:02;;;;;;;1.48;0.68;;;5.90;81.40;;;;;;4944860;28;20039;-62
2023/12/21 00:57:28;;;;;;;3.08;0.70;;;5.90;81.40;;;;;;4941552;28;20032;-63
2023/12/21 00:59:53;;;;;;;1.10;0.65;;;5.90;81.50;;;;;;4942245;28;20047;-61
2023/12/21 01:02:19;;;;;;;1.85;0.70;;;5.90;81.50;;;;;;4941773;28;20131;-62
2023/12/21 01:04:44;;;;;;;0.98;0.77;;;5.90;81.50;;;;;;4946067;28;20578;-63
2023/12/21 01:07:10;;;;;;;1.48;0.85;;;5.90;81.60;;;;;;4946233;28;20047;-62
2023/12/21 01:09:36;;;;;;;1.25;0.70;;;5.90;81.60;;;;;;4941617;28;20403;-62
2023/12/21 01:12:01;;;;;;;3.45;1.10;;;5.90;81.70;;;;;;4943411;28;20027;-63
2023/12/21 01:14:29;;;;;;;3.58;0.80;;;5.90;81.80;;;;;;4945872;28;20467;-61
2023/12/21 01:16:54;;;;;;;1.58;0.80;;;6.00;81.90;;;;;;4945001;28;20023;-62
2023/12/21 01:19:20;;;;;;;1.13;0.70;;;6.00;82.00;;;;;;4948102;28;20065;-62
2023/12/21 01:21:46;;;;;;;2.78;0.65;;;6.00;82.00;;;;;;4946991;28;20035;-61
2023/12/21 01:24:11;;;;;;;2.20;0.98;;;6.00;82.00;;;;;;4942823;28;20043;-62
2023/12/21 01:26:37;;;;;;;1.65;1.02;;;6.00;82.10;;;;;;4941853;28;20039;-63
2023/12/21 01:29:02;;;;;;;1.38;0.93;;;6.10;82.10;;;;;;4945298;28;20507;-63
2023/12/21 01:31:28;;;;;;;2.55;1.20;;;6.10;82.10;;;;;;4944388;28;20024;-63
2023/12/21 01:33:53;;;;;;;2.13;0.80;;;6.10;82.10;;;;;;4948887;28;20050;-63
2023/12/21 01:36:19;;;;;;;1.75;0.80;;;6.10;82.10;;;;;;4942174;28;20047;-63
2023/12/21 01:38:45;;;;;;;1.15;0.75;;;6.10;82.10;;;;;;4953988;28;20046;-63
2023/12/21 01:41:10;;;;;;;1.95;0.77;;;6.10;82.30;;;;;;4941602;28;20043;-61
2023/12/21 01:43:36;;;;;;;1.10;0.70;;;6.10;82.20;;;;;;4941550;28;20035;-62
2023/12/21 01:46:02;;;;;;;1.10;0.90;;;6.10;82.10;;;;;;4949606;28;20097;-63
2023/12/21 01:48:30;;;;;;;2.13;0.80;;;6.20;82.30;;;;;;4947752;28;20031;-61
2023/12/21 01:50:58;;;;;;;3.42;0.85;;;6.20;82.30;;;;;;4946595;28;20044;-62
2023/12/21 01:53:24;;;;;;;1.35;1.00;;;6.20;82.30;;;;;;4946027;28;20032;-62
2023/12/21 01:55:50;;;;;;;2.47;0.70;;;6.20;82.30;;;;;;4947208;28;20023;-63
2023/12/21 01:58:16;;;;;;;2.00;0.85;;;6.20;82.40;;;;;;4948146;28;20032;-63
2023/12/21 02:00:42;;;;;;;1.35;0.70;;;6.20;82.50;;;;;;4951145;28;20039;-63
2023/12/21 02:03:08;;;;;;;1.33;0.80;;;6.20;82.50;;;;;;4950247;28;20047;-63
2023/12/21 02:05:34;;;;;;;1.35;0.70;;;6.20;82.50;;;;;;4945859;28;20043;-63
2023/12/21 02:08:00;;;;;;;1.25;0.65;;;6.30;82.50;;;;;;4950749;28;20028;-63
2023/12/21 02:10:25;;;;;;;2.95;0.70;;;6.30;82.50;;;;;;4944459;28;20126;-63
2023/12/21 02:12:51;;;;;;;2.15;0.80;;;6.30;82.50;;;;;;4947758;28;20042;-62
2023/12/21 02:15:16;;;;;;;1.13;0.60;;;6.30;82.50;;;;;;4950182;28;20082;-63
2023/12/21 02:17:46;;;;;;;1.20;0.70;;;6.30;82.60;;;;;;4946241;28;20043;-63
2023/12/21 02:20:12;;;;;;;2.67;0.80;;;6.30;82.50;;;;;;4946468;28;20079;-63
2023/12/21 02:22:41;;;;;;;1.98;0.80;;;6.30;82.50;;;;;;4951061;28;20040;-62
2023/12/21 02:25:07;;;;;;;1.02;0.68;;;6.30;82.60;;;;;;4947409;28;20116;-63
2023/12/21 02:27:33;;;;;;;2.50;0.85;;;6.30;82.60;;;;;;4950302;28;20050;-63
2023/12/21 02:29:59;;;;;;;1.73;0.70;;;6.30;82.70;;;;;;4945869;28;20534;-62
2023/12/21 02:32:25;;;;;;;2.28;0.98;;;6.30;82.70;;;;;;4948506;28;20040;-60
2023/12/21 02:34:50;;;;;;;3.65;0.75;;;6.30;82.70;;;;;;4943605;28;20415;-62
2023/12/21 02:37:19;;;;;;;0.88;0.80;;;6.30;82.80;;;;;;4943431;28;20028;-62
2023/12/21 02:39:45;;;;;;;1.05;0.63;;;6.30;82.70;;;;;;4945296;28;20061;-63
2023/12/21 02:42:11;;;;;;;1.35;0.70;;;6.30;82.70;;;;;;4948773;28;20511;-63
2023/12/21 02:44:36;;;;;;;1.23;0.70;;;6.30;82.80;;;;;;4944501;28;20040;-63
2023/12/21 02:47:02;;;;;;;0.65;0.65;;;6.30;83.00;;;;;;4948054;28;20031;-62
2023/12/21 02:49:27;;;;;;;2.05;0.75;;;6.30;83.00;;;;;;4947175;28;20036;-62
2023/12/21 02:51:55;;;;;;;1.55;0.73;;;6.30;83.10;;;;;;4945406;28;20423;-63
2023/12/21 02:54:20;;;;;;;0.82;0.50;;;6.30;83.20;;;;;;4946438;28;20035;-63
2023/12/21 02:56:48;;;;;;;1.45;0.80;;;6.30;83.30;;;;;;4948460;28;20027;-62
2023/12/21 02:59:14;;;;;;;1.27;0.80;;;6.30;83.30;;;;;;4943325;28;20039;-62
2023/12/21 03:01:43;;;;;;;1.10;0.60;;;6.20;83.40;;;;;;4949532;28;20525;-63
2023/12/21 03:04:11;;;;;;;1.40;0.90;;;6.20;83.50;;;;;;4942927;28;20074;-63
2023/12/21 03:06:37;;;;;;;0.93;0.60;;;6.20;83.50;;;;;;4944385;28;20035;-61
2023/12/21 03:09:03;;;;;;;1.85;0.82;;;6.20;83.60;;;;;;4951583;28;20098;-62
2023/12/21 03:11:28;;;;;;;0.68;0.60;;;6.20;83.70;;;;;;4944677;28;20044;-61
2023/12/21 03:13:54;;;;;;;2.35;0.70;;;6.20;83.70;;;;;;4949507;28;20487;-62
2023/12/21 03:16:19;;;;;;;1.52;0.70;;;6.20;83.90;;;;;;4944117;28;20071;-62
2023/12/21 03:18:46;;;;;;;1.38;0.68;;;6.20;83.80;;;;;;4944995;28;20059;-63
2023/12/21 03:21:11;;;;;;;0.85;0.60;;;6.20;83.90;;;;;;4942199;28;20036;-62
2023/12/21 03:23:40;;;;;;;1.83;0.65;;;6.10;83.90;;;;;;4945930;28;20117;-62
2023/12/21 03:26:06;;;;;;;1.38;0.60;;;6.10;84.00;;;;;;4945929;28;20043;-63
2023/12/21 03:28:32;;;;;;;0.75;0.60;;;6.10;84.10;;;;;;4945412;28;20087;-62
2023/12/21 03:30:57;;;;;;;1.00;0.70;;;6.10;84.20;;;;;;4943890;28;20031;-62
2023/12/21 03:33:23;;;;;;;1.60;0.50;;;6.10;84.20;;;;;;4949433;28;20098;-61
2023/12/21 03:35:49;;;;;;;1.30;0.60;;;6.10;84.40;;;;;;4943959;28;20031;-62
2023/12/21 03:38:14;;;;;;;0.80;0.60;;;6.10;84.40;;;;;;4946211;28;20049;-62
2023/12/21 03:40:40;;;;;;;1.42;0.88;;;6.10;84.40;;;;;;4942882;28;20028;-62
2023/12/21 03:43:05;;;;;;;1.17;0.55;;;6.10;84.40;;;;;;4948907;28;20515;-63
2023/12/21 03:45:32;;;;;;;1.85;0.70;;;6.10;84.40;;;;;;4945553;28;20023;-63
2023/12/21 03:47:57;;;;;;;1.30;0.63;;;6.10;84.40;;;;;;4945718;28;20028;-64
2023/12/21 03:50:23;;;;;;;1.70;0.60;;;6.10;84.50;;;;;;4945847;28;20095;-61
2023/12/21 03:52:48;;;;;;;0.50;0.45;;;6.10;84.60;;;;;;4946721;28;20122;-61
2023/12/21 03:55:14;;;;;;;0.50;0.50;;;6.10;84.60;;;;;;4957995;28;20043;-62
2023/12/21 03:57:40;;;;;;;1.33;0.43;;;6.10;84.60;;;;;;4945861;28;20041;-63
2023/12/21 04:00:06;;;;;;;0.85;0.50;;;6.20;84.60;;;;;;4945525;28;20114;-62
2023/12/21 04:02:32;;;;;;;1.60;0.57;;;6.20;84.60;;;;;;4948255;28;20035;-62
2023/12/21 04:04:58;;;;;;;0.80;0.60;;;6.20;84.50;;;;;;4944800;28;20031;-62
2023/12/21 04:07:23;;;;;;;1.17;0.60;;;6.20;84.50;;;;;;4940943;28;20086;-61
2023/12/21 04:09:49;;;;;;;1.50;0.57;;;6.30;84.50;;;;;;4943937;28;20063;-63
2023/12/21 04:12:15;;;;;;;0.60;0.45;;;6.30;84.50;;;;;;4941676;28;20035;-62
2023/12/21 04:14:41;;;;;;;0.80;0.50;;;6.30;84.40;;;;;;4948234;28;20042;-62
2023/12/21 04:17:07;;;;;;;2.28;0.45;;;6.30;84.40;;;;;;4945790;28;20024;-63
2023/12/21 04:19:34;;;;;;;0.82;0.40;;;6.30;84.30;;;;;;4946648;28;20039;-62
2023/12/21 04:21:59;;;;;;;1.23;0.50;;;6.30;84.20;;;;;;4945861;28;20118;-63
2023/12/21 04:24:25;;;;;;;1.83;0.43;;;6.40;84.30;;;;;;4944153;28;20119;-63
2023/12/21 04:26:51;;;;;;;0.40;0.40;;;6.40;84.10;;;;;;4943977;28;20036;-61
2023/12/21 04:29:16;;;;;;;1.65;0.40;;;6.40;84.10;;;;;;4945724;28;20319;-63
2023/12/21 04:31:44;;;;;;;1.05;0.60;;;6.40;84.00;;;;;;4944625;28;20039;-63
2023/12/21 04:34:10;;;;;;;0.77;0.57;;;6.40;83.90;;;;;;4944268;28;20443;-63
2023/12/21 04:36:36;;;;;;;1.75;0.40;;;6.40;83.80;;;;;;4944495;28;20028;-63
2023/12/21 04:39:02;;;;;;;1.00;0.50;;;6.40;83.80;;;;;;4943119;28;20047;-62
2023/12/21 04:41:27;;;;;;;1.73;0.40;;;6.40;83.70;;;;;;4941196;28;20087;-62
2023/12/21 04:43:53;;;;;;;2.88;0.50;;;6.50;83.90;;;;;;4947324;28;20118;-63
2023/12/21 04:46:18;;;;;;;0.65;0.40;;;6.50;83.90;;;;;;4944884;28;20035;-63
2023/12/21 04:48:44;;;;;;;0.77;0.40;;;6.40;83.80;;;;;;4951712;28;20070;-63
2023/12/21 04:51:16;;;;;;;0.65;0.40;;;6.50;83.90;;;;;;4942207;28;20031;-62
2023/12/21 04:53:42;;;;;;;2.78;0.40;;;6.50;83.90;;;;;;4948259;28;20086;-63
2023/12/21 04:56:08;;;;;;;0.90;0.45;;;6.50;83.90;;;;;;4940551;28;20047;-62
2023/12/21 04:58:33;;;;;;;0.30;0.30;;;6.50;83.90;;;;;;4948765;28;20032;-62
2023/12/21 05:00:59;;;;;;;1.27;0.32;;;6.50;83.90;;;;;;4947658;28;20035;-62
2023/12/21 05:03:24;;;;;;;1.55;0.40;;;6.50;83.90;;;;;;4942825;28;20036;-63
2023/12/21 05:05:50;;;;;;;0.60;0.40;;;6.50;83.90;;;;;;4943564;28;20162;-63
2023/12/21 05:08:17;;;;;;;1.08;0.50;;;6.60;83.90;;;;;;4942105;28;20403;-63
2023/12/21 05:10:42;;;;;;;1.42;0.30;;;6.60;83.90;;;;;;4948483;28;20459;-63
2023/12/21 05:13:08;;;;;;;0.38;0.38;;;6.60;83.90;;;;;;4941536;28;20039;-63
2023/12/21 05:15:34;;;;;;;0.95;0.60;;;6.60;83.80;;;;;;4948227;28;20574;-63
2023/12/21 05:17:59;;;;;;;2.25;0.70;;;6.60;83.90;;;;;;4949236;28;20031;-63
2023/12/21 05:20:25;;;;;;;2.25;0.80;;;6.60;83.80;;;;;;4943788;28;20072;-63
2023/12/21 05:22:51;;;;;;;0.73;0.73;;;6.60;83.80;;;;;;4952182;28;20178;-63
2023/12/21 05:25:16;;;;;;;1.20;1.02;;;6.70;83.80;;;;;;4954332;28;20039;-61
2023/12/21 05:27:42;;;;;;;1.20;1.10;;;6.60;83.70;;;;;;4955124;28;20444;-62
2023/12/21 05:30:09;;;;;;;2.38;1.60;;;6.70;83.70;;;;;;4945288;28;20043;-63
2023/12/21 05:32:34;;;;;;;1.73;1.42;;;6.70;83.70;;;;;;4946323;28;20526;-63
2023/12/21 05:35:00;;;;;;;4.05;1.73;;;6.70;83.60;;;;;;4950094;28;20031;-62
2023/12/21 05:37:29;;;;;;;2.65;1.70;;;6.70;83.50;;;;;;4947376;28;20522;-63
2023/12/21 05:39:54;;;;;;;2.58;2.00;;;6.70;83.40;;;;;;4949537;28;20391;-63
2023/12/21 05:42:20;;;;;;;3.85;2.58;;;6.70;83.40;;;;;;4947871;28;20051;-63
2023/12/21 05:44:45;;;;;;;4.05;2.38;;;6.80;83.40;;;;;;4947914;28;20036;-63
2023/12/21 05:47:11;;;;;;;3.92;2.88;;;6.80;83.50;;;;;;4951178;28;20083;-62
2023/12/21 05:49:37;;;;;;;5.95;2.90;;;6.80;83.30;;;;;;4950303;28;20047;-63
2023/12/21 05:52:03;;;;;;;5.72;3.63;;;6.80;83.10;;;;;;4949707;28;20617;-63
2023/12/21 05:54:30;;;;;;;4.97;3.67;;;6.80;83.10;;;;;;4944700;28;20508;-63
2023/12/21 05:56:56;;;;;;;5.68;3.63;;;6.80;83.00;;;;;;4946088;28;20428;-63
2023/12/21 05:59:21;;;;;;;5.22;3.70;;;6.90;82.90;;;;;;4946770;28;20122;-63
2023/12/21 06:01:47;;;;;;;5.18;3.40;;;6.80;82.80;;;;;;4949693;28;20070;-62
2023/12/21 06:04:13;;;;;;;4.22;3.25;;;6.90;82.90;;;;;;4951660;28;20183;-63
2023/12/21 06:06:38;;;;;;;4.53;3.53;;;6.90;82.60;;;;;;4946225;28;20384;-63
2023/12/21 06:09:07;;;;;;;7.28;3.72;;;6.90;82.60;;;;;;4950242;28;21391;-62
2023/12/21 06:11:33;;;;;;;4.25;3.47;;;6.90;82.50;;;;;;4942336;28;20043;-63
2023/12/21 06:13:59;;;;;;;4.45;3.22;;;6.90;82.50;;;;;;4950895;28;20251;-64
2023/12/21 06:16:24;;;;;;;4.35;3.08;;;6.90;82.40;;;;;;4947592;28;20039;-63
2023/12/21 06:18:50;;;;;;;4.05;3.35;;;6.90;82.40;;;;;;4948836;28;20046;-63
2023/12/21 06:21:16;;;;;;;4.22;2.97;;;6.90;82.40;;;;;;4950857;28;20526;-63
2023/12/21 06:23:42;;;;;;;3.90;2.67;;;7.00;82.50;;;;;;4946149;28;20032;-63
2023/12/21 06:26:07;;;;;;;4.85;2.63;;;7.00;82.50;;;;;;4946888;28;20126;-63
2023/12/21 06:28:33;;;;;;;3.42;2.53;;;7.00;82.40;;;;;;4946492;28;20036;-63
2023/12/21 06:30:58;;;;;;;2.72;2.35;;;7.00;82.40;;;;;;4946799;28;20043;-62
2023/12/21 06:33:24;;;;;;;3.00;2.10;;;7.00;82.40;;;;;;4942489;28;20508;-63
2023/12/21 06:35:49;;;;;;;2.63;2.15;;;7.00;82.30;;;;;;4947826;28;20478;-61
2023/12/21 06:38:15;;;;;;;3.13;2.00;;;7.00;82.30;;;;;;4949479;28;20035;-63
2023/12/21 06:40:41;;;;;;;1.70;1.60;;;7.10;82.50;;;;;;4947614;28;20470;-63
2023/12/21 06:43:06;;;;;;;2.95;1.75;;;7.10;82.50;;;;;;4947691;28;20451;-63
2023/12/21 06:45:32;;;;;;;2.33;1.67;;;7.10;82.50;;;;;;4949396;28;20222;-63
2023/12/21 06:48:00;;;;;;;1.77;1.60;;;7.10;82.40;;;;;;4950790;28;20028;-63
2023/12/21 06:50:26;;;;;;;1.98;1.50;;;7.10;82.10;;;;;;4939060;28;20050;-63
2023/12/21 06:52:51;;;;;;;2.83;1.60;;;7.10;82.20;;;;;;4947573;28;20035;-63
2023/12/21 06:55:17;;;;;;;3.15;1.50;;;7.20;82.20;;;;;;4947218;28;20047;-61
2023/12/21 06:57:43;;;;;;;1.70;1.30;;;7.20;82.20;;;;;;4947245;28;20027;-62
2023/12/21 07:00:09;;;;;;;3.88;1.52;;;7.20;82.00;;;;;;4944396;28;20035;-61
2023/12/21 07:02:35;;;;;;;1.58;1.40;;;7.20;82.00;;;;;;4945608;28;20028;-60
2023/12/21 07:05:01;;;;;;;4.38;1.50;;;7.20;81.90;;;;;;4945194;28;20034;-61
2023/12/21 07:07:27;;;;;;;1.40;1.30;;;7.30;81.90;;;;;;4944430;28;20032;-62
2023/12/21 07:09:52;;;;;;;1.75;1.40;;;7.30;81.90;;;;;;4945024;28;20570;-63
2023/12/21 07:12:19;;;;;;;1.80;1.23;;;7.30;81.90;;;;;;4943275;28;20039;-62
2023/12/21 07:14:46;;;;;;;2.47;1.27;;;7.30;81.70;;;;;;4945552;28;20031;-62
2023/12/21 07:17:12;;;;;;;2.20;1.20;;;7.30;81.60;;;;;;4935703;28;20420;-63
2023/12/21 07:19:38;;;;;;;2.08;1.30;;;7.30;81.60;;;;;;4940983;28;20043;-63
2023/12/21 07:22:04;;;;;;;2.22;1.10;;;7.40;81.70;;;;;;4940497;28;20044;-63
2023/12/21 07:24:30;;;;;;;1.63;1.00;;;7.40;81.70;;;;;;4946492;28;20507;-63
2023/12/21 07:26:56;;;;;;;1.00;0.90;;;7.40;81.70;;;;;;4945949;28;20086;-63
2023/12/21 07:29:22;;;;;;;1.23;1.00;;;7.40;81.70;;;;;;4945517;28;20039;-63
2023/12/21 07:31:48;;;;;;;1.02;0.95;;;7.40;81.70;;;;;;4940636;28;20287;-63
2023/12/21 07:34:13;;;;;;;3.20;1.10;;;7.40;81.80;;;;;;4945963;28;20043;-63
2023/12/21 07:36:39;;;;;;;1.50;1.02;;;7.40;81.80;;;;;;4948195;28;20031;-63
2023/12/21 07:39:04;;;;;;;2.08;0.82;;;7.40;81.80;;;;;;4947279;28;20735;-62
2023/12/21 07:41:30;;;;;;;1.48;0.80;;;7.50;81.90;;;;;;4944522;28;20031;-63
2023/12/21 07:43:57;;;;;;;1.00;0.93;;;7.50;81.90;;;;;;4945762;28;20342;-60
2023/12/21 07:46:23;;;;;;;2.45;0.90;;;7.50;81.80;;;;;;4945829;28;20047;-63
2023/12/21 07:48:49;;;;;;;0.95;0.80;;;7.50;81.90;;;;;;4945287;28;20043;-63
2023/12/21 07:51:15;;;;;;;1.00;0.80;;;7.50;81.90;;;;;;4946311;28;20039;-63
2023/12/21 07:53:41;;;;;;;1.02;0.80;;;7.50;81.90;;;;;;4951335;28;20043;-63
2023/12/21 07:56:06;;;;;;;1.55;0.70;;;7.50;81.90;;;;;;4945936;28;20053;-62
2023/12/21 07:58:32;;;;;;;1.48;0.70;;;7.50;81.90;;;;;;4941853;28;20046;-63
2023/12/21 08:00:58;;;;;;;0.55;0.45;;;7.50;82.00;;;;;;4940726;28;21169;-62
2023/12/21 08:03:23;;;;;;;1.52;0.60;;;7.60;82.10;;;;;;4941299;28;20035;-62
2023/12/21 08:05:49;;;;;;;1.42;0.57;;;7.60;82.00;;;;;;4939055;28;20027;-62
2023/12/21 08:08:14;;;;;;;0.85;0.60;;;7.60;82.00;;;;;;4941404;28;20023;-63
2023/12/21 08:10:40;;;;;;;0.40;0.40;;;7.70;82.20;;;;;;4943479;28;20062;-64
2023/12/21 08:13:08;;;;;;;0.28;0.25;;;7.70;82.10;;;;;;4947303;28;20039;-62
2023/12/21 08:15:34;;;;;;;0.80;0.38;;;7.70;82.90;;;;;;4945777;28;20031;-62
2023/12/21 08:17:59;;;;;;;1.00;0.40;;;7.80;82.20;;;;;;4941575;28;20038;-62
2023/12/21 08:20:25;;;;;;;0.88;0.30;;;7.80;82.20;;;;;;4938990;28;20574;-62
2023/12/21 08:22:50;;;;;;;0.30;0.30;;;7.80;82.20;;;;;;4944614;28;20059;-62
2023/12/21 08:25:16;;;;;;;0.30;0.30;;;7.80;82.20;;;;;;4940250;28;20046;-63
2023/12/21 08:27:42;;;;;;;0.25;0.20;;;7.90;82.40;;;;;;4940068;28;20039;-63
2023/12/21 08:30:10;;;;;;;0.35;0.22;;;7.90;83.30;;;;;;4942345;28;20148;-62
2023/12/21 08:32:36;;;;;;;0.30;0.30;;;7.90;82.40;;;;;;4937763;28;20122;-63
2023/12/21 08:35:01;;;;;;;0.73;0.30;;;8.00;82.40;;;;;;4946454;28;20063;-63
2023/12/21 08:37:27;;;;;;;0.20;0.20;;;8.00;82.40;;;;;;4940459;28;20032;-63
2023/12/21 08:39:53;;;;;;;1.55;0.10;;;8.00;83.30;;;;;;4945256;28;20503;-63
2023/12/21 08:42:19;;;;;;;0.20;0.20;;;8.10;82.50;;;;;;4943921;28;20042;-63
2023/12/21 08:44:44;;;;;;;0.80;0.20;;;8.10;82.50;;;;;;4943287;28;20032;-63
2023/12/21 08:47:10;;;;;;;0.75;0.32;;;8.10;82.40;;;;;;4941395;28;20139;-62
2023/12/21 08:49:35;;;;;;;0.50;0.25;;;8.10;82.40;;;;;;4939225;28;20563;-62
2023/12/21 08:52:01;;;;;;;0.30;0.20;;;8.20;82.40;;;;;;4938428;28;20055;-63
2023/12/21 08:54:27;;;;;;;0.10;0.10;;;8.20;82.40;;;;;;4941266;28;20503;-63
2023/12/21 08:56:52;;;;;;;0.20;0.10;;;8.30;82.40;;;;;;4942357;28;20063;-63
2023/12/21 08:59:19;;;;;;;2.17;0.20;;;8.30;82.30;;;;;;4940947;28;20473;-63
2023/12/21 09:01:44;;;;;;;0.10;0.10;;;8.30;82.30;;;;;;4944650;28;20039;-63
2023/12/21 09:04:10;;;;;;;0.43;0.15;;;8.30;82.20;;;;;;4942076;28;20101;-63
2023/12/21 09:06:35;;;;;;;0.10;0.10;;;8.30;82.30;;;;;;4947794;28;20142;-63
2023/12/21 09:09:04;;;;;;;0.20;0.20;;;8.30;82.20;;;;;;4948093;28;20046;-63
2023/12/21 09:11:30;;;;;;;0.65;0.20;;;8.40;82.30;;;;;;4943719;28;20110;-63
2023/12/21 09:13:56;;;;;;;0.10;0.10;;;8.40;82.30;;;;;;4943740;28;20171;-63
2023/12/21 09:16:24;;;;;;;0.50;0.10;;;8.50;82.30;;;;;;4938431;28;20530;-63
2023/12/21 09:18:52;;;;;;;0.32;0.20;;;8.40;82.20;;;;;;4942734;28;20035;-63
2023/12/21 09:21:17;;;;;;;0.93;0.30;;;8.50;82.30;;;;;;4938528;28;20093;-63
2023/12/21 09:23:43;;;;;;;0.22;0.20;;;8.50;83.20;;;;;;4942299;28;20505;-63
2023/12/21 09:26:10;;;;;;;0.43;0.10;;;8.50;83.10;;;;;;4942762;28;20070;-62
2023/12/21 09:28:36;;;;;;;0.10;0.10;;;8.50;82.20;;;;;;4948012;28;20031;-63
2023/12/21 09:31:03;;;;;;;0.10;0.10;;;8.60;82.20;;;;;;4942928;28;20123;-60
2023/12/21 09:33:32;;;;;;;0.28;0.10;;;8.60;82.20;;;;;;4943849;28;20051;-63
2023/12/21 09:35:58;;;;;;;0.45;0.20;;;8.60;82.20;;;;;;4944105;28;20054;-63
2023/12/21 09:38:24;;;;;;;0.10;0.10;;;8.60;82.20;;;;;;4936597;28;20082;-62
2023/12/21 09:40:50;;;;;;;0.45;0.10;;;8.60;82.30;;;;;;4935749;28;20031;-64
2023/12/21 09:43:21;;;;;;;0.17;0.10;;;8.70;82.30;;;;;;4939720;28;20126;-62
2023/12/21 09:45:51;;;;;;;0.15;0.15;;;8.70;82.20;;;;;;4942597;28;20054;-64
2023/12/21 09:48:18;;;;;;;0.30;0.20;;;8.70;82.20;;;;;;4945137;28;20474;-64
2023/12/21 09:50:45;;;;;;;0.52;0.20;;;8.70;82.00;;;;;;4948250;28;20384;-64
2023/12/21 09:53:13;;;;;;;0.10;0.10;;;8.70;81.90;;;;;;4944462;28;20040;-64
2023/12/21 09:55:44;;;;;;;0.60;0.10;;;8.70;81.90;;;;;;4939469;28;20066;-63
2023/12/21 09:58:13;;;;;;;0.30;0.20;;;8.70;81.70;;;;;;4942949;28;20039;-64
2023/12/21 10:00:39;;;;;;;0.40;0.00;;;8.80;81.80;;;;;;4940701;28;20027;-63
2023/12/21 10:03:05;;;;;;;0.20;0.20;;;8.80;81.80;;;;;;4944908;28;20043;-63
2023/12/21 10:05:34;;;;;;;0.13;0.10;;;8.80;81.80;;;;;;4946599;28;20032;-63
2023/12/21 10:08:01;;;;;;;0.30;0.10;;;8.80;81.90;;;;;;4947448;28;20038;-64
2023/12/21 10:10:27;;;;;;;0.15;0.10;;;8.80;82.00;;;;;;4944589;28;20240;-65
2023/12/21 10:12:53;;;;;;;0.10;0.10;;;8.80;82.10;;;;;;4944998;28;20042;-64
2023/12/21 10:15:19;;;;;;;1.23;0.10;;;8.80;82.10;;;;;;4946870;28;20042;-64
2023/12/21 10:17:45;;;;;;;0.30;0.00;;;8.80;82.20;;;;;;4948335;28;20035;-64
2023/12/21 10:20:12;;;;;;;0.25;0.10;;;8.80;82.10;;;;;;4948721;28;20109;-64
2023/12/21 10:22:42;;;;;;;0.20;0.10;;;8.80;82.00;;;;;;4949097;28;20035;-63
2023/12/21 10:25:11;;;;;;;0.28;0.10;;;8.80;82.00;;;;;;4942590;28;20050;-63
2023/12/21 10:27:37;;;;;;;0.45;0.10;;;8.80;82.00;;;;;;4948190;28;20062;-64
2023/12/21 10:30:04;;;;;;;1.65;0.22;;;8.80;82.00;;;;;;4943846;28;20547;-64
2023/12/21 10:32:30;;;;;;;0.30;0.10;;;8.80;82.00;;;;;;4943939;28;20072;-64
2023/12/21 10:34:59;;;;;;;0.55;0.10;;;8.80;82.20;;;;;;4942108;28;20066;-64
2023/12/21 10:37:25;;;;;;;0.20;0.15;;;8.80;82.20;;;;;;4948376;28;20039;-63
2023/12/21 10:39:52;;;;;;;0.20;0.10;;;8.80;82.20;;;;;;4945586;28;20031;-64
2023/12/21 10:42:19;;;;;;;0.82;0.15;;;8.80;82.30;;;;;;4944475;28;20051;-63
2023/12/21 10:44:47;;;;;;;0.10;0.10;;;8.80;82.20;;;;;;4948383;28;20027;-64
2023/12/21 10:47:13;;;;;;;0.20;0.10;;;8.80;82.20;;;;;;4951333;28;20035;-64
2023/12/21 10:49:40;;;;;;;0.38;0.10;;;8.80;82.20;;;;;;4944157;28;20031;-63
2023/12/21 10:52:05;;;;;;;0.10;0.10;;;8.80;82.20;;;;;;4939459;28;20039;-62
2023/12/21 10:54:33;;;;;;;0.45;0.20;;;8.80;82.20;;;;;;4936396;28;20046;-64
2023/12/21 10:56:59;;;;;;;0.00;0.00;;;8.80;82.20;;;;;;4939978;28;20074;-64
2023/12/21 10:59:26;;;;;;;0.15;0.10;;;8.80;82.20;;;;;;4939783;28;20118;-63
2023/12/21 11:01:53;;;;;;;0.55;0.15;;;8.80;82.30;;;;;;4938824;28;20069;-62
2023/12/21 11:04:22;;;;;;;0.13;0.10;;;8.80;82.30;;;;;;4941380;28;20031;-64
2023/12/21 11:06:49;;;;;;;0.22;0.20;;;8.80;82.40;;;;;;4944262;28;20134;-63
2023/12/21 11:09:19;;;;;;;0.20;0.15;;;8.80;82.50;;;;;;4932599;28;20043;-64
2023/12/21 11:11:46;;;;;;;0.20;0.10;;;8.80;82.40;;;;;;4947690;28;20043;-64
2023/12/21 11:14:12;;;;;;;0.95;0.20;;;8.80;82.30;;;;;;4944803;28;20031;-64
2023/12/21 11:16:44;;;;;;;0.45;0.20;;;8.80;82.30;;;;;;4943541;28;20035;-64
2023/12/21 11:19:13;;;;;;;0.82;0.20;;;8.70;82.20;;;;;;4947675;28;20046;-62
2023/12/21 11:21:40;;;;;;;0.45;0.20;;;8.70;82.20;;;;;;4945048;28;20051;-63
2023/12/21 11:24:05;;;;;;;0.45;0.13;;;8.70;82.20;;;;;;4949838;28;20035;-63
2023/12/21 11:26:31;;;;;;;1.40;0.40;;;8.70;82.30;;;;;;4947573;28;20583;-64
2023/12/21 11:29:04;;;;;;;0.45;0.30;;;8.70;82.20;;;;;;4948627;28;20431;-64
2023/12/21 11:31:40;;;;;;;0.20;0.20;;;8.80;82.20;;;;;;4947172;28;20040;-64
2023/12/21 11:34:14;;;;;;;0.43;0.20;;;8.80;82.20;;;;;;4952416;28;20055;-64
2023/12/21 11:36:41;;;;;;;0.90;0.20;;;8.80;82.20;;;;;;4951064;28;20028;-64
2023/12/21 11:39:18;;;;;;;0.20;0.20;;;8.80;82.20;;;;;;4941675;28;20048;-64
2023/12/21 11:41:57;;;;;;;0.20;0.10;;;8.80;82.10;;;;;;4947590;28;20027;-64
2023/12/21 11:44:22;;;;;;;0.80;0.10;;;8.80;82.10;;;;;;4946608;28;20063;-63
2023/12/21 11:46:49;;;;;;;2.30;0.20;;;8.80;82.20;;;;;;4948354;28;20027;-64
2023/12/21 11:49:24;;;;;;;0.20;0.20;;;8.80;82.20;;;;;;4949522;28;20047;-64
2023/12/21 11:51:51;;;;;;;0.28;0.20;;;8.80;82.20;;;;;;4949406;28;20118;-64
2023/12/21 11:54:22;;;;;;;0.63;0.40;;;8.90;82.30;;;;;;4950408;28;20040;-64
2023/12/21 11:56:49;;;;;;;0.30;0.30;;;8.80;82.30;;;;;;4950314;28;20035;-64
2023/12/21 11:59:16;;;;;;;0.43;0.20;;;8.80;82.30;;;;;;4947091;28;20046;-64
2023/12/21 12:01:44;;;;;;;0.52;0.20;;;8.80;82.40;;;;;;4949291;28;20114;-62
2023/12/21 12:04:14;;;;;;;0.38;0.20;;;8.80;82.40;;;;;;4950615;28;20039;-64
2023/12/21 12:06:41;;;;;;;0.25;0.20;;;8.80;82.40;;;;;;4946168;28;20118;-64
2023/12/21 12:09:06;;;;;;;0.68;0.38;;;8.80;82.40;;;;;;4944845;28;20133;-64
2023/12/21 12:11:32;;;;;;;0.20;0.20;;;8.80;82.50;;;;;;4945412;28;20499;-63
2023/12/21 12:13:58;;;;;;;5.97;0.47;;;8.80;82.50;;;;;;4949497;28;20034;-62
2023/12/21 12:16:24;;;;;;;1.50;0.40;;;8.90;82.60;;;;;;4948436;28;20039;-63
2023/12/21 12:18:49;;;;;;;0.30;0.30;;;8.90;82.70;;;;;;4945499;28;20039;-63
2023/12/21 12:21:16;;;;;;;0.57;0.30;;;8.90;82.70;;;;;;4947096;28;20447;-64
2023/12/21 12:23:46;;;;;;;0.77;0.30;;;8.90;82.60;;;;;;4948800;28;20396;-63
2023/12/21 12:26:12;;;;;;;0.40;0.22;;;8.90;82.60;;;;;;4943789;28;20100;-63
2023/12/21 12:28:38;;;;;;;0.20;0.20;;;9.00;82.70;;;;;;4948585;28;20126;-63
2023/12/21 12:31:04;;;;;;;0.52;0.32;;;8.90;82.80;;;;;;4943440;28;20126;-64
2023/12/21 12:33:33;;;;;;;0.82;0.50;;;8.90;82.90;;;;;;4947623;28;20050;-64
2023/12/21 12:36:03;;;;;;;1.30;0.30;;;8.90;82.90;;;;;;4945550;28;20119;-63
2023/12/21 12:38:29;;;;;;;1.73;0.32;;;8.90;83.10;;;;;;4946067;28;20035;-63
2023/12/21 12:40:56;;;;;;;2.47;0.30;;;8.90;83.20;;;;;;4950296;28;20032;-63
2023/12/21 12:43:23;;;;;;;0.38;0.20;;;8.90;83.30;;;;;;4946390;28;20130;-63
2023/12/21 12:45:49;;;;;;;0.20;0.20;;;8.90;83.40;;;;;;4947494;28;20110;-61
2023/12/21 12:48:18;;;;;;;0.10;0.10;;;8.90;83.60;;;;;;4944908;28;20035;-64
2023/12/21 12:50:44;;;;;;;0.50;0.20;;;8.90;83.60;;;;;;4946527;28;20066;-63
2023/12/21 12:53:10;;;;;;;0.20;0.20;;;8.90;83.80;;;;;;4945052;28;20047;-63